Terminal Aerodrome Forecast
Issued by NWS Sioux Falls, SD

Home | Current Version | Previous Version | Graphics & Text | Print | Product List | Glossary Off
Versions: 1 2 3 4 5 6 7 8 9 10 11 12 13 14 15 16 17 18 19 20

000
FTUS43 KFSD 151120
TAFFSD
TAF
KFSD 151120Z 1512/1612 10005KT P6SM -SHRA OVC045
     FM151700 12009KT P6SM VCSH BKN070
     FM151900 13010KT P6SM VCTS BKN050CB
     FM160000 12012KT P6SM SHRA VCTS OVC090CB
     FM160900 12005KT P6SM SHRA VCTS OVC015CB=

USA.gov is the U.S. government's official web portal to all federal, state and local government web resources and services.